CTM4 weather

Toronto (St. Michael's Hospital) Heliport
Toronto, Ontario, Canada

Public forecast

Using degrees Celsius for public forecast. Weather courtesy of forecast.io.

Closest aviation weather report (METAR) to Toronto (St. Michael's Hospital) Heliport

Closest report is Billy Bishop Toronto City Centre Airport, 1.8 nm (3.3 km) SSW. Retrieved 2020/05/27 14:00 UTC (59 minutes ago):

CYTZ 271400Z AUTO VRB03KT 9SM CLR 24/17 A3008 RMK SLP186 DENSITY ALT 1100FT

Closest aviation forecast (TAF) to Toronto (St. Michael's Hospital) Heliport

Closest forecast is Billy Bishop Toronto City Centre Airport, 1.8 nm (3.3 km) SSW. Retrieved 2020/05/27 14:55 UTC (4 minutes ago):

TAF CYTZ 271345Z 2714/2814 VRB03KT P6SM BKN250 BECMG 2714/2716 17010KT FM280300 12005KT P6SM SCT160 BKN250 FM280800 14005KT P6SM SCT060 BKN150 FM281200 12005KT P6SM BKN060 OVC120 RMK FCST BASED ON AUTO OBS NXT FCST BY 272000Z